Time;durP1;ratioP1;P1;durP2;ratioP2;P2;SDS_P1;SDS_P2;PMS_P1;PMS_P2;Temp;Humidity;BMP_temperature;BMP_pressure;BME280_temperature;BME280_humidity;BME280_pressure;Samples;Min_cycle;Max_cycle;Signal;HPM_P1;HPM_P2
2022/02/27 00:00:48;;;;;;;3.72;2.58;;;17.70;59.70;;;;;;10420810;28;20041;-55
2022/02/27 00:05:49;;;;;;;4.10;2.50;;;17.80;59.70;;;;;;10415252;28;20490;-56
2022/02/27 00:10:49;;;;;;;4.25;2.15;;;17.80;59.60;;;;;;10411719;28;20037;-55
2022/02/27 00:15:50;;;;;;;3.60;2.35;;;17.70;59.80;;;;;;10413292;28;20535;-55
2022/02/27 00:20:51;;;;;;;3.97;2.28;;;17.70;59.80;;;;;;10412832;28;20525;-55
2022/02/27 00:25:52;;;;;;;3.72;1.90;;;17.70;59.80;;;;;;10407047;28;20600;-54
2022/02/27 00:30:53;;;;;;;3.58;2.40;;;17.70;59.80;;;;;;10427831;28;20042;-55
2022/02/27 00:35:54;;;;;;;4.03;2.78;;;17.70;59.90;;;;;;10412455;28;20046;-55
2022/02/27 00:40:54;;;;;;;3.55;1.85;;;17.70;59.80;;;;;;10411174;28;20044;-55
2022/02/27 00:45:55;;;;;;;2.90;1.90;;;17.70;59.80;;;;;;10384797;28;20036;-55
2022/02/27 00:50:56;;;;;;;3.47;1.90;;;17.70;59.80;;;;;;10412491;28;20356;-55
2022/02/27 00:55:57;;;;;;;4.40;2.38;;;17.70;59.80;;;;;;10410954;28;20032;-55
2022/02/27 01:00:57;;;;;;;4.28;2.30;;;17.70;59.70;;;;;;10421709;28;20025;-55
2022/02/27 01:05:58;;;;;;;3.95;2.33;;;17.70;59.60;;;;;;10419176;28;20534;-55
2022/02/27 01:10:59;;;;;;;3.13;1.95;;;17.70;59.60;;;;;;10414182;28;20526;-56
2022/02/27 01:16:00;;;;;;;3.28;2.15;;;17.70;59.50;;;;;;10419482;28;20026;-55
2022/02/27 01:21:01;;;;;;;2.92;2.10;;;17.70;59.50;;;;;;10419247;28;20132;-55
2022/02/27 01:26:02;;;;;;;3.72;2.30;;;17.70;59.50;;;;;;10417931;28;20033;-55
2022/02/27 01:31:03;;;;;;;2.90;1.88;;;17.70;59.40;;;;;;10433944;28;20029;-55
2022/02/27 01:36:05;;;;;;;4.55;2.00;;;17.70;59.30;;;;;;10433862;28;20045;-54
2022/02/27 01:41:06;;;;;;;3.63;1.92;;;17.60;59.40;;;;;;10420397;28;20025;-55
2022/02/27 01:46:09;;;;;;;4.22;1.95;;;17.70;59.30;;;;;;10417236;28;20029;-55
2022/02/27 01:51:11;;;;;;;3.72;2.13;;;17.60;59.20;;;;;;10418019;28;20087;-55
2022/02/27 01:56:12;;;;;;;3.90;2.15;;;17.60;59.20;;;;;;10406706;28;20029;-56
2022/02/27 02:01:13;;;;;;;2.65;1.83;;;17.70;59.00;;;;;;10426128;28;20370;-55
2022/02/27 02:06:13;;;;;;;2.47;1.67;;;17.70;59.60;;;;;;10430590;28;20033;-55
2022/02/27 02:11:14;;;;;;;3.28;1.80;;;17.70;59.00;;;;;;10416107;28;20034;-55
2022/02/27 02:16:15;;;;;;;3.78;2.28;;;17.70;58.90;;;;;;10432498;28;20461;-55
2022/02/27 02:21:16;;;;;;;3.35;1.75;;;17.70;58.90;;;;;;10414668;28;20509;-55
2022/02/27 02:26:17;;;;;;;3.28;1.95;;;17.70;58.90;;;;;;10415294;28;20033;-55
2022/02/27 02:31:18;;;;;;;3.45;2.00;;;17.70;58.90;;;;;;10398411;28;20030;-55
2022/02/27 02:36:19;;;;;;;3.30;2.13;;;17.70;58.70;;;;;;10431532;28;20124;-56
2022/02/27 02:41:19;;;;;;;2.85;2.00;;;17.70;58.60;;;;;;10415926;28;20033;-55
2022/02/27 02:46:20;;;;;;;2.80;2.00;;;17.70;58.50;;;;;;10416199;28;20104;-55
2022/02/27 02:51:21;;;;;;;3.53;2.00;;;17.70;58.60;;;;;;10414563;28;20033;-55
2022/02/27 02:56:21;;;;;;;4.13;1.92;;;17.70;58.60;;;;;;10414215;28;20108;-55
2022/02/27 03:01:22;;;;;;;3.28;1.90;;;17.70;58.50;;;;;;10423663;28;20379;-55
2022/02/27 03:06:23;;;;;;;4.40;2.15;;;17.70;58.50;;;;;;10427948;28;20032;-54
2022/02/27 03:11:24;;;;;;;3.60;2.03;;;17.70;58.50;;;;;;10414861;28;20048;-55
2022/02/27 03:16:25;;;;;;;2.78;1.90;;;17.70;58.50;;;;;;10417070;28;20396;-55
2022/02/27 03:21:26;;;;;;;2.85;1.67;;;17.70;58.50;;;;;;10414275;28;20044;-54
2022/02/27 03:26:27;;;;;;;5.60;1.77;;;17.70;58.50;;;;;;10386640;28;20033;-55
2022/02/27 03:31:27;;;;;;;3.15;1.85;;;17.70;58.40;;;;;;10413985;28;20117;-55
2022/02/27 03:36:28;;;;;;;3.97;1.90;;;17.70;58.50;;;;;;10413533;28;20125;-55
2022/02/27 03:41:29;;;;;;;4.60;1.58;;;17.70;58.40;;;;;;10412859;28;20033;-55
2022/02/27 03:46:34;;;;;;;2.85;2.38;;;17.70;58.30;;;;;;10412534;28;20168;-55
2022/02/27 03:51:36;;;;;;;3.63;1.90;;;17.70;58.20;;;;;;10413465;28;20034;-54
2022/02/27 03:56:37;;;;;;;3.25;1.80;;;17.70;58.30;;;;;;10411366;28;20057;-55
2022/02/27 04:01:38;;;;;;;2.92;1.50;;;17.70;58.40;;;;;;10432191;28;20486;-55
2022/02/27 04:06:39;;;;;;;4.13;2.33;;;17.70;58.40;;;;;;10415348;28;20068;-55
2022/02/27 04:11:39;;;;;;;2.45;1.45;;;17.70;58.40;;;;;;10416097;28;20033;-55
2022/02/27 04:16:40;;;;;;;2.45;1.33;;;17.70;58.40;;;;;;10428606;28;20030;-55
2022/02/27 04:21:41;;;;;;;3.60;1.80;;;17.70;58.30;;;;;;10413268;28;20355;-55
2022/02/27 04:26:42;;;;;;;5.88;1.85;;;17.70;58.30;;;;;;10403639;28;20042;-53
2022/02/27 04:31:43;;;;;;;3.72;1.42;;;17.70;58.20;;;;;;10411450;28;20029;-55
2022/02/27 04:36:44;;;;;;;2.40;1.70;;;17.70;58.20;;;;;;10412659;28;20472;-54
2022/02/27 04:41:45;;;;;;;2.08;1.55;;;17.70;58.30;;;;;;10427562;28;20029;-54
2022/02/27 04:46:45;;;;;;;1.83;1.17;;;17.70;58.20;;;;;;10414766;28;20026;-54
2022/02/27 04:51:46;;;;;;;1.95;1.33;;;17.70;58.30;;;;;;10420515;28;20027;-55
2022/02/27 04:56:48;;;;;;;2.22;1.40;;;17.70;58.20;;;;;;10420102;28;20052;-55
2022/02/27 05:01:49;;;;;;;3.35;1.60;;;17.70;58.30;;;;;;10428312;28;20041;-56
2022/02/27 05:06:50;;;;;;;1.92;1.27;;;17.70;58.20;;;;;;10417269;28;20111;-54
2022/02/27 05:11:51;;;;;;;3.45;1.70;;;17.70;58.20;;;;;;10426419;28;20030;-55
2022/02/27 05:16:51;;;;;;;2.25;1.20;;;17.70;58.10;;;;;;10418771;28;20080;-56
2022/02/27 05:21:52;;;;;;;3.03;1.45;;;17.70;58.10;;;;;;10417266;28;20557;-55
2022/02/27 05:26:53;;;;;;;3.15;1.50;;;17.70;58.00;;;;;;10416727;28;20402;-55
2022/02/27 05:31:53;;;;;;;3.45;1.75;;;17.70;58.10;;;;;;10416819;28;20025;-54
2022/02/27 05:36:54;;;;;;;2.42;1.38;;;17.70;58.10;;;;;;10417726;28;20128;-54
2022/02/27 05:41:55;;;;;;;1.77;1.23;;;17.70;58.10;;;;;;10433954;28;20029;-55
2022/02/27 05:46:56;;;;;;;2.42;1.30;;;17.70;58.10;;;;;;10418199;28;20474;-55
2022/02/27 05:51:56;;;;;;;3.33;1.65;;;17.60;58.10;;;;;;10420278;28;20426;-55
2022/02/27 05:56:57;;;;;;;4.07;1.77;;;17.60;58.20;;;;;;10418569;28;20024;-56
2022/02/27 06:01:58;;;;;;;4.80;1.75;;;17.80;57.90;;;;;;10427436;28;20073;-55
2022/02/27 06:07:00;;;;;;;7.22;1.60;;;17.70;59.00;;;;;;10415097;28;20044;-55
2022/02/27 06:12:00;;;;;;;6.65;1.65;;;17.60;60.10;;;;;;10430094;28;20022;-55
2022/02/27 06:17:01;;;;;;;4.07;1.75;;;17.70;58.80;;;;;;10417154;28;20045;-56
2022/02/27 06:22:03;;;;;;;6.88;1.52;;;17.60;60.20;;;;;;10411873;28;20488;-57
2022/02/27 06:27:03;;;;;;;3.42;1.27;;;17.80;60.00;;;;;;10415950;28;20434;-56
2022/02/27 06:32:05;;;;;;;4.43;1.70;;;17.70;59.30;;;;;;10432218;28;20071;-56
2022/02/27 06:37:05;;;;;;;6.45;1.95;;;17.70;59.90;;;;;;10431261;28;20111;-57
2022/02/27 06:42:06;;;;;;;6.72;1.65;;;17.80;59.60;;;;;;10414878;28;20129;-55
2022/02/27 06:47:07;;;;;;;14.82;2.20;;;17.90;60.00;;;;;;10414703;28;20082;-56
2022/02/27 06:52:07;;;;;;;9.32;2.65;;;17.90;60.50;;;;;;10397983;28;20021;-56
2022/02/27 06:57:09;;;;;;;14.10;2.83;;;17.90;60.50;;;;;;10414249;28;20458;-55
2022/02/27 07:02:11;;;;;;;9.40;1.63;;;17.90;60.80;;;;;;10431101;28;20390;-53
2022/02/27 07:07:11;;;;;;;16.23;2.50;;;17.80;60.70;;;;;;10410126;28;20033;-54
2022/02/27 07:12:12;;;;;;;14.15;2.97;;;17.80;60.20;;;;;;10404549;28;20150;-56
2022/02/27 07:17:13;;;;;;;6.22;2.08;;;17.70;60.30;;;;;;10404291;28;20025;-56
2022/02/27 07:22:13;;;;;;;10.85;2.78;;;17.70;59.80;;;;;;10412376;28;20425;-53
2022/02/27 07:27:15;;;;;;;18.23;2.80;;;17.80;59.40;;;;;;10423050;28;20506;-55
2022/02/27 07:32:15;;;;;;;13.57;2.33;;;17.70;59.20;;;;;;10410928;28;20029;-54
2022/02/27 07:37:16;;;;;;;6.93;3.28;;;17.80;58.90;;;;;;10412002;28;20386;-54
2022/02/27 07:42:17;;;;;;;8.93;2.67;;;17.80;58.60;;;;;;10408771;28;20057;-53
2022/02/27 07:47:18;;;;;;;10.15;2.65;;;17.80;58.40;;;;;;10410474;28;20407;-55
2022/02/27 07:52:19;;;;;;;6.63;2.25;;;17.60;58.70;;;;;;10400379;28;20040;-55
2022/02/27 07:57:19;;;;;;;10.77;2.40;;;17.80;58.30;;;;;;10393831;28;20124;-55
2022/02/27 08:02:20;;;;;;;10.75;2.50;;;17.80;58.10;;;;;;10420555;28;20444;-55
2022/02/27 08:07:21;;;;;;;8.07;2.30;;;17.80;58.20;;;;;;10408888;28;20125;-55
2022/02/27 08:12:21;;;;;;;7.38;2.80;;;17.80;58.30;;;;;;10423834;28;20049;-55
2022/02/27 08:17:22;;;;;;;8.43;1.95;;;17.80;58.40;;;;;;10410138;28;20486;-54
2022/02/27 08:22:23;;;;;;;10.27;2.45;;;17.70;58.90;;;;;;10432119;28;20026;-54
2022/02/27 08:27:24;;;;;;;4.03;2.05;;;17.70;59.00;;;;;;10421080;28;20043;-55
2022/02/27 08:32:25;;;;;;;5.70;2.20;;;17.70;59.00;;;;;;10421394;28;20486;-53
2022/02/27 08:37:26;;;;;;;10.27;2.83;;;17.60;59.20;;;;;;10419879;28;20496;-55
2022/02/27 08:42:28;;;;;;;4.80;1.85;;;17.60;59.50;;;;;;10419364;28;20030;-55
2022/02/27 08:47:29;;;;;;;5.85;1.75;;;17.40;59.80;;;;;;10420833;28;20021;-55
2022/02/27 08:52:29;;;;;;;3.67;1.92;;;17.30;60.00;;;;;;10419080;28;20163;-55
2022/02/27 08:57:30;;;;;;;4.32;1.65;;;17.20;60.30;;;;;;10422949;28;20121;-54
2022/02/27 09:02:31;;;;;;;3.25;1.60;;;17.10;60.80;;;;;;10428682;28;20037;-54
2022/02/27 09:07:35;;;;;;;5.80;1.60;;;17.10;61.50;;;;;;10416714;28;20061;-54
2022/02/27 09:12:36;;;;;;;3.88;1.65;;;17.10;61.50;;;;;;10432328;28;20449;-55
2022/02/27 09:17:37;;;;;;;12.18;2.47;;;17.10;61.40;;;;;;10412438;28;20104;-54
2022/02/27 09:22:38;;;;;;;9.88;2.30;;;17.10;61.60;;;;;;10414753;28;20021;-56
2022/02/27 09:27:38;;;;;;;13.48;2.70;;;17.10;61.10;;;;;;10417862;28;20040;-56
2022/02/27 09:32:40;;;;;;;14.18;2.83;;;17.10;61.10;;;;;;10419827;28;20025;-53
2022/02/27 09:37:41;;;;;;;15.95;2.55;;;17.20;61.20;;;;;;10408367;28;20037;-55
2022/02/27 09:42:42;;;;;;;22.77;4.00;;;17.30;61.30;;;;;;10424882;28;20486;-53
2022/02/27 09:47:43;;;;;;;10.23;3.15;;;17.30;61.40;;;;;;10407949;28;20049;-52
2022/02/27 09:52:44;;;;;;;14.07;2.65;;;17.20;61.30;;;;;;10405223;28;20112;-53
2022/02/27 09:57:46;;;;;;;19.73;5.32;;;17.20;61.50;;;;;;10405888;28;20048;-53
2022/02/27 10:03:12;;;;;;;19.67;4.53;;;17.30;61.70;;;;;;10405697;28;20108;-56
2022/02/27 10:08:15;;;;;;;27.50;5.28;;;17.30;61.80;;;;;;10383256;28;21740;-54
2022/02/27 10:13:29;;;;;;;29.40;4.93;;;17.30;61.80;;;;;;10394830;28;20025;-55
2022/02/27 10:18:48;;;;;;;31.10;5.25;;;17.40;62.00;;;;;;10404606;28;20540;-53
2022/02/27 10:24:07;;;;;;;26.02;4.90;;;17.40;62.10;;;;;;10405813;28;20064;-54
2022/02/27 10:29:24;;;;;;;24.08;4.95;;;17.40;61.90;;;;;;10404661;28;20120;-55
2022/02/27 10:34:36;;;;;;;23.23;4.57;;;17.50;61.80;;;;;;10404898;28;20042;-54
2022/02/27 10:39:45;;;;;;;21.70;4.20;;;17.50;61.90;;;;;;10406142;28;20397;-54
2022/02/27 10:44:58;;;;;;;16.27;4.07;;;17.40;62.10;;;;;;10406133;28;20036;-55
2022/02/27 10:50:03;;;;;;;15.73;3.75;;;17.50;61.90;;;;;;10389030;28;20038;-50
2022/02/27 10:55:08;;;;;;;14.05;3.78;;;17.40;61.90;;;;;;10404882;28;20033;-54
2022/02/27 11:00:23;;;;;;;17.65;3.70;;;17.50;62.00;;;;;;10405378;28;20030;-53
2022/02/27 11:05:28;;;;;;;11.90;3.72;;;17.50;62.10;;;;;;10406671;28;20120;-51
2022/02/27 11:10:32;;;;;;;18.75;5.03;;;17.50;62.10;;;;;;10404333;28;20065;-52
2022/02/27 11:15:33;;;;;;;17.98;4.30;;;17.60;62.40;;;;;;10406851;28;20083;-51
2022/02/27 11:20:35;;;;;;;12.73;3.60;;;17.60;62.50;;;;;;10405820;28;20041;-51
2022/02/27 11:25:35;;;;;;;11.32;3.08;;;17.70;62.20;;;;;;10403865;28;20030;-52
2022/02/27 11:30:39;;;;;;;17.33;3.67;;;17.60;61.80;;;;;;10402435;28;20469;-52
2022/02/27 11:36:00;;;;;;;15.55;3.72;;;17.60;61.70;;;;;;10402081;28;20486;-54
2022/02/27 11:41:16;;;;;;;10.88;3.40;;;17.60;61.60;;;;;;10419879;28;20084;-53
2022/02/27 11:46:35;;;;;;;9.00;2.83;;;17.60;61.10;;;;;;10403890;28;20043;-54
2022/02/27 11:51:42;;;;;;;5.82;2.45;;;17.60;60.60;;;;;;10404828;28;20112;-56
2022/02/27 11:57:00;;;;;;;10.65;3.00;;;17.70;60.50;;;;;;10403257;28;20071;-55
2022/02/27 12:02:00;;;;;;;11.75;3.10;;;17.70;60.60;;;;;;10403572;28;20029;-56
2022/02/27 12:07:09;;;;;;;12.40;3.17;;;17.70;60.60;;;;;;10403358;28;20492;-54
2022/02/27 12:12:36;;;;;;;7.70;2.67;;;17.70;60.50;;;;;;10404238;28;20076;-57
2022/02/27 12:18:15;;;;;;;8.93;3.40;;;17.70;60.90;;;;;;10403931;28;20470;-57
2022/02/27 12:23:29;;;;;;;7.47;2.63;;;17.70;61.20;;;;;;10398051;28;20366;-57
2022/02/27 12:28:44;;;;;;;13.05;3.10;;;17.70;61.10;;;;;;10402739;28;20060;-57
2022/02/27 12:33:46;;;;;;;13.93;4.07;;;17.70;61.20;;;;;;10402943;28;20052;-57
2022/02/27 12:39:01;;;;;;;8.32;2.63;;;17.70;60.50;;;;;;10402561;28;20449;-58
2022/02/27 12:44:04;;;;;;;9.55;3.28;;;17.80;60.80;;;;;;10402436;28;20037;-57
2022/02/27 12:54:28;;;;;;;10.23;2.63;;;17.70;60.00;;;;;;10404578;28;20041;-58
2022/02/27 12:59:32;;;;;;;6.65;2.33;;;17.70;59.60;;;;;;10403504;28;20033;-57
2022/02/27 13:04:35;;;;;;;7.60;2.42;;;17.80;59.60;;;;;;10402740;28;20382;-57
2022/02/27 13:09:38;;;;;;;6.40;2.45;;;17.70;59.40;;;;;;10406962;28;20056;-57
2022/02/27 13:14:50;;;;;;;8.57;2.58;;;17.80;59.20;;;;;;10410074;28;20737;-56
2022/02/27 13:19:53;;;;;;;6.47;2.95;;;17.80;59.20;;;;;;10408873;28;20098;-57
2022/02/27 13:24:57;;;;;;;11.30;3.22;;;17.80;59.10;;;;;;10408471;28;20405;-58
2022/02/27 13:30:30;;;;;;;19.48;3.78;;;17.80;59.80;;;;;;10407598;28;20102;-58
2022/02/27 13:35:34;;;;;;;21.67;5.28;;;17.70;59.80;;;;;;10392851;28;20132;-59
2022/02/27 13:40:39;;;;;;;13.90;3.33;;;17.80;60.30;;;;;;10409344;28;20436;-58
2022/02/27 13:45:44;;;;;;;10.10;3.13;;;17.90;59.70;;;;;;10408747;28;20052;-59
2022/02/27 13:50:46;;;;;;;12.13;3.85;;;17.90;59.50;;;;;;10408085;28;20029;-58
2022/02/27 13:55:53;;;;;;;12.90;3.05;;;17.80;59.40;;;;;;10407085;28;20031;-58
2022/02/27 14:00:57;;;;;;;12.70;3.95;;;17.90;59.00;;;;;;10408620;28;20374;-58
2022/02/27 14:06:01;;;;;;;9.07;2.70;;;17.90;58.30;;;;;;10407762;28;20036;-58
2022/02/27 14:11:24;;;;;;;14.20;2.90;;;17.90;58.40;;;;;;10407946;28;20034;-59
2022/02/27 14:16:32;;;;;;;4.80;1.83;;;17.80;58.50;;;;;;10408627;28;20045;-54
2022/02/27 14:21:36;;;;;;;7.40;3.20;;;17.80;58.60;;;;;;10406443;28;21443;-55
2022/02/27 14:26:41;;;;;;;6.20;2.08;;;17.80;58.70;;;;;;10406388;28;20037;-56
2022/02/27 14:31:48;;;;;;;8.13;2.88;;;17.70;58.80;;;;;;10384267;28;20029;-56
2022/02/27 14:36:49;;;;;;;3.60;1.80;;;17.70;58.90;;;;;;10404984;28;20095;-57
2022/02/27 14:41:50;;;;;;;3.90;2.08;;;17.70;58.70;;;;;;10406162;28;20018;-55
2022/02/27 14:46:51;;;;;;;6.32;2.33;;;17.70;58.40;;;;;;10406300;28;20530;-56
2022/02/27 14:51:52;;;;;;;12.35;3.10;;;17.70;58.40;;;;;;10402479;28;20083;-56
2022/02/27 14:56:52;;;;;;;5.78;2.33;;;17.60;58.00;;;;;;10398511;28;20371;-55
2022/02/27 15:01:53;;;;;;;8.15;3.05;;;17.60;58.00;;;;;;10404727;28;20395;-56
2022/02/27 15:06:54;;;;;;;6.68;2.70;;;17.70;57.90;;;;;;10388249;28;20047;-55
2022/02/27 15:11:54;;;;;;;5.75;2.60;;;17.60;57.70;;;;;;10387480;28;20037;-55
2022/02/27 15:16:55;;;;;;;4.93;2.33;;;17.60;57.50;;;;;;10406089;28;20642;-57
2022/02/27 15:21:56;;;;;;;4.32;2.10;;;17.60;57.50;;;;;;10406206;28;20034;-55
2022/02/27 15:26:57;;;;;;;8.73;2.40;;;17.50;57.60;;;;;;10405459;28;20033;-56
2022/02/27 15:31:58;;;;;;;5.13;2.28;;;17.40;57.40;;;;;;10405176;28;20080;-56
2022/02/27 15:36:58;;;;;;;5.50;2.20;;;17.30;57.60;;;;;;10400847;28;20053;-56
2022/02/27 15:41:59;;;;;;;6.45;2.42;;;17.30;58.30;;;;;;10400882;28;20624;-58
2022/02/27 15:47:00;;;;;;;6.40;2.75;;;17.20;57.50;;;;;;10403890;28;20549;-57
2022/02/27 15:52:02;;;;;;;5.40;2.10;;;17.10;57.60;;;;;;10400163;28;20033;-57
2022/02/27 15:57:04;;;;;;;6.57;2.95;;;17.10;57.50;;;;;;10401945;28;20421;-57
2022/02/27 16:02:05;;;;;;;5.63;2.28;;;17.00;57.80;;;;;;10389721;28;20112;-57
2022/02/27 16:07:08;;;;;;;3.55;2.10;;;17.00;57.90;;;;;;10408681;28;20103;-57
2022/02/27 16:12:09;;;;;;;4.65;2.15;;;17.00;58.00;;;;;;10418573;28;20037;-57
2022/02/27 16:17:10;;;;;;;4.13;2.03;;;16.90;58.10;;;;;;10410846;28;20034;-57
2022/02/27 16:22:11;;;;;;;8.50;2.20;;;16.90;58.40;;;;;;10428417;28;20366;-57
2022/02/27 16:27:12;;;;;;;7.20;2.67;;;16.90;58.70;;;;;;10411510;28;20026;-58
2022/02/27 16:32:13;;;;;;;11.50;3.28;;;16.80;59.50;;;;;;10411202;28;20026;-56
2022/02/27 16:37:14;;;;;;;10.02;2.60;;;16.90;60.00;;;;;;10411714;28;20049;-56
2022/02/27 16:42:15;;;;;;;7.22;2.53;;;16.90;60.00;;;;;;10415308;28;20147;-56
2022/02/27 16:47:15;;;;;;;7.32;3.80;;;17.10;60.70;;;;;;10419127;28;20113;-55
2022/02/27 16:52:16;;;;;;;9.13;3.30;;;17.40;61.80;;;;;;10418713;28;20029;-54
2022/02/27 16:57:17;;;;;;;12.75;3.83;;;17.20;60.30;;;;;;10418941;28;20493;-55
2022/02/27 17:02:17;;;;;;;16.25;5.45;;;17.30;60.30;;;;;;10420445;28;20021;-55
2022/02/27 17:07:18;;;;;;;25.63;13.65;;;17.20;60.50;;;;;;10407907;28;20028;-56
2022/02/27 17:12:19;;;;;;;22.33;11.18;;;17.70;67.80;;;;;;10419958;28;20047;-56
2022/02/27 17:17:19;;;;;;;16.45;10.55;;;17.90;63.80;;;;;;10419405;28;20087;-56
2022/02/27 17:22:20;;;;;;;17.10;9.23;;;17.90;63.40;;;;;;10418366;28;20025;-56
2022/02/27 17:27:21;;;;;;;19.05;8.45;;;17.80;62.70;;;;;;10409178;28;20033;-55
2022/02/27 17:32:21;;;;;;;20.02;9.25;;;17.80;63.00;;;;;;10419104;28;20040;-56
2022/02/27 17:37:22;;;;;;;17.42;8.65;;;17.80;63.00;;;;;;10414071;28;20069;-54
2022/02/27 17:42:23;;;;;;;27.15;9.80;;;17.70;63.50;;;;;;10416250;28;20026;-54
2022/02/27 17:47:26;;;;;;;19.73;9.00;;;17.60;64.20;;;;;;10416409;28;20021;-57
2022/02/27 17:52:27;;;;;;;17.33;8.70;;;17.50;63.80;;;;;;10421160;28;20033;-55
2022/02/27 17:57:28;;;;;;;18.90;7.78;;;17.40;65.00;;;;;;10416184;28;20033;-56
2022/02/27 18:02:29;;;;;;;18.17;7.20;;;17.60;64.80;;;;;;10424236;28;20478;-57
2022/02/27 18:07:29;;;;;;;15.68;7.28;;;17.50;64.00;;;;;;10415353;28;20485;-56
2022/02/27 18:12:30;;;;;;;18.88;7.03;;;17.40;63.60;;;;;;10416288;28;20095;-56
2022/02/27 18:17:33;;;;;;;18.65;7.35;;;17.20;63.60;;;;;;10415952;28;20523;-56
2022/02/27 18:22:33;;;;;;;14.85;6.45;;;17.20;62.90;;;;;;10414899;28;20029;-56
2022/02/27 18:27:35;;;;;;;14.75;6.55;;;17.30;62.60;;;;;;10416016;28;20037;-57
2022/02/27 18:32:36;;;;;;;13.65;6.68;;;17.30;62.30;;;;;;10394352;28;20022;-56
2022/02/27 18:37:39;;;;;;;13.10;5.70;;;17.30;62.20;;;;;;10412325;28;20053;-56
2022/02/27 18:42:44;;;;;;;13.07;6.15;;;17.50;61.70;;;;;;10413161;28;20071;-56
2022/02/27 18:47:45;;;;;;;11.60;5.70;;;17.50;61.60;;;;;;10404213;28;20041;-56
2022/02/27 18:52:46;;;;;;;12.57;4.88;;;17.40;61.80;;;;;;10405010;28;20052;-57
2022/02/27 18:57:48;;;;;;;12.10;5.53;;;17.30;62.60;;;;;;10410146;28;20063;-56
2022/02/27 19:02:49;;;;;;;11.80;5.50;;;17.30;63.10;;;;;;10413796;28;20041;-56
2022/02/27 19:07:50;;;;;;;17.45;6.07;;;17.30;63.40;;;;;;10411689;28;20033;-56
2022/02/27 19:12:51;;;;;;;16.10;5.00;;;17.20;63.40;;;;;;10421396;28;20034;-56
2022/02/27 19:17:53;;;;;;;11.23;4.45;;;17.30;64.00;;;;;;10420220;28;20128;-57
2022/02/27 19:22:54;;;;;;;10.65;5.18;;;17.20;63.50;;;;;;10410869;28;20033;-57
2022/02/27 19:27:55;;;;;;;11.98;5.10;;;17.20;63.40;;;;;;10416915;28;20040;-57
2022/02/27 19:32:56;;;;;;;9.30;5.00;;;17.20;63.30;;;;;;10412738;28;20037;-56
2022/02/27 19:37:57;;;;;;;10.70;4.47;;;17.20;63.40;;;;;;10409630;28;20280;-56
2022/02/27 19:42:58;;;;;;;9.57;4.80;;;17.20;63.40;;;;;;10408578;28;20022;-56
2022/02/27 19:47:59;;;;;;;10.23;4.75;;;17.20;63.40;;;;;;10408437;28;20033;-56
2022/02/27 19:52:59;;;;;;;11.90;5.07;;;17.20;63.50;;;;;;10409283;28;20025;-55
2022/02/27 19:58:02;;;;;;;8.00;4.35;;;17.20;63.20;;;;;;10408683;28;20029;-55
2022/02/27 20:03:03;;;;;;;13.02;4.45;;;17.30;62.70;;;;;;10390985;28;20363;-55
2022/02/27 20:08:05;;;;;;;11.00;4.60;;;17.20;63.20;;;;;;10406302;28;20548;-55
2022/02/27 20:13:06;;;;;;;7.97;4.53;;;17.20;63.50;;;;;;10399032;28;20097;-56
2022/02/27 20:18:11;;;;;;;6.65;3.90;;;17.30;62.90;;;;;;10405639;28;20386;-56
2022/02/27 20:23:12;;;;;;;9.25;4.55;;;17.20;63.40;;;;;;10403981;28;20033;-55
2022/02/27 20:28:15;;;;;;;6.45;4.13;;;17.30;64.20;;;;;;10407764;28;20065;-55
2022/02/27 20:33:17;;;;;;;11.55;4.20;;;17.20;64.20;;;;;;10424555;28;20394;-56
2022/02/27 20:38:18;;;;;;;7.90;4.55;;;17.20;64.30;;;;;;10372079;28;1062645;-55
2022/02/27 20:43:18;;;;;;;8.20;3.88;;;17.20;63.70;;;;;;10407901;28;20112;-54
2022/02/27 20:48:22;;;;;;;7.15;3.90;;;17.20;63.30;;;;;;10395644;28;20058;-56
2022/02/27 20:53:23;;;;;;;7.15;3.95;;;17.30;63.30;;;;;;10389230;28;20084;-56
2022/02/27 20:58:24;;;;;;;6.38;3.90;;;17.40;63.20;;;;;;10404087;28;20032;-55
2022/02/27 21:03:25;;;;;;;8.15;3.72;;;17.40;62.90;;;;;;10405515;28;20045;-55
2022/02/27 21:08:26;;;;;;;9.02;4.05;;;17.30;64.10;;;;;;10404198;28;20030;-56
2022/02/27 21:13:28;;;;;;;8.95;3.83;;;17.30;64.40;;;;;;10392796;28;20462;-56
2022/02/27 21:18:29;;;;;;;7.03;3.70;;;17.30;63.30;;;;;;10409959;28;20029;-55
2022/02/27 21:23:30;;;;;;;9.30;4.45;;;17.40;62.80;;;;;;10425658;28;20386;-56
2022/02/27 21:28:30;;;;;;;8.85;4.18;;;17.40;62.50;;;;;;10412094;28;20030;-56
2022/02/27 21:33:32;;;;;;;6.18;3.78;;;17.40;63.00;;;;;;10422544;28;20112;-56
2022/02/27 21:38:33;;;;;;;8.05;3.58;;;17.50;61.90;;;;;;10417382;28;20037;-56
2022/02/27 21:43:34;;;;;;;12.60;4.05;;;17.60;61.50;;;;;;10415120;28;20034;-56
2022/02/27 21:48:35;;;;;;;9.32;4.13;;;17.60;61.30;;;;;;10420069;28;20037;-54
2022/02/27 21:53:36;;;;;;;6.63;3.63;;;17.50;61.30;;;;;;10432539;28;20022;-55
2022/02/27 21:58:36;;;;;;;6.30;3.15;;;17.40;61.40;;;;;;10416206;28;20390;-56
2022/02/27 22:03:37;;;;;;;5.43;3.40;;;17.50;61.00;;;;;;10418013;28;20033;-56
2022/02/27 22:08:39;;;;;;;7.38;3.47;;;17.60;60.70;;;;;;10416526;28;20033;-56
2022/02/27 22:13:40;;;;;;;6.22;3.45;;;17.70;60.60;;;;;;10415400;28;20041;-56
2022/02/27 22:18:41;;;;;;;3.90;3.08;;;17.60;60.60;;;;;;10421751;28;20033;-56
2022/02/27 22:23:41;;;;;;;5.18;2.83;;;17.50;60.60;;;;;;10417193;28;20378;-55
2022/02/27 22:28:43;;;;;;;5.15;3.58;;;17.70;60.20;;;;;;10432487;28;20094;-56
2022/02/27 22:33:44;;;;;;;4.55;2.85;;;17.60;60.10;;;;;;10431849;28;20037;-56
2022/02/27 22:38:44;;;;;;;4.57;3.00;;;17.60;59.90;;;;;;10405347;28;20087;-56
2022/02/27 22:43:45;;;;;;;5.18;3.10;;;17.60;59.70;;;;;;10416587;28;20030;-56
2022/02/27 22:48:46;;;;;;;5.20;3.40;;;17.70;59.50;;;;;;10431443;28;20025;-55
2022/02/27 22:53:47;;;;;;;5.00;2.83;;;17.60;59.50;;;;;;10414931;28;20029;-55
2022/02/27 22:58:47;;;;;;;4.30;3.28;;;17.60;59.60;;;;;;10431377;28;20029;-55
2022/02/27 23:09:07;;;;;;;7.68;3.33;;;17.60;59.10;;;;;;10428627;28;20025;-56
2022/02/27 23:14:09;;;;;;;4.18;2.30;;;17.70;59.00;;;;;;10414023;28;20026;-55
2022/02/27 23:19:09;;;;;;;4.00;2.80;;;17.70;58.90;;;;;;10427020;28;20040;-55
2022/02/27 23:24:11;;;;;;;4.15;2.95;;;17.70;58.80;;;;;;10413700;28;20371;-56
2022/02/27 23:29:11;;;;;;;8.45;3.25;;;17.60;58.70;;;;;;10413317;28;20604;-56
2022/02/27 23:34:12;;;;;;;5.07;3.30;;;17.70;58.70;;;;;;10413255;28;20117;-56
2022/02/27 23:39:14;;;;;;;5.13;3.30;;;17.60;58.70;;;;;;10414175;28;20394;-56
2022/02/27 23:44:14;;;;;;;3.90;2.70;;;17.70;58.60;;;;;;10412945;28;20032;-55
2022/02/27 23:49:15;;;;;;;3.58;2.55;;;17.70;58.50;;;;;;10413902;28;20143;-56
2022/02/27 23:54:16;;;;;;;4.40;3.42;;;17.70;58.40;;;;;;10428928;28;20169;-56
2022/02/27 23:59:16;;;;;;;3.95;2.47;;;17.60;58.40;;;;;;10413688;28;20037;-56
